Time;durP1;ratioP1;P1;durP2;ratioP2;P2;SDS_P1;SDS_P2;PMS_P1;PMS_P2;Temp;Humidity;BMP_temperature;BMP_pressure;BME280_temperature;BME280_humidity;BME280_pressure;Samples;Min_cycle;Max_cycle;Signal;HPM_P1;HPM_P2
2020/12/03 00:05:37;;;;;;;36.43;19.33;;;;;;;-5.18;80.67;99707.34;516606;1098;65188;-69
2020/12/03 00:15:41;;;;;;;36.10;20.10;;;;;;;-5.23;81.75;99691.98;516410;1093;65195;-64
2020/12/03 00:25:46;;;;;;;31.17;18.03;;;;;;;-5.26;80.97;99703.05;516296;1098;65251;-63
2020/12/03 00:35:51;;;;;;;27.10;16.83;;;;;;;-5.30;82.40;99708.16;516505;1098;65188;-69
2020/12/03 00:45:55;;;;;;;32.13;16.93;;;;;;;-5.40;81.10;99733.72;517324;1098;65500;-67
2020/12/03 00:55:59;;;;;;;25.03;16.53;;;;;;;-5.49;81.63;99719.20;516499;1098;65165;-64
2020/12/03 01:06:04;;;;;;;33.55;17.70;;;;;;;-5.53;81.29;99707.25;516510;1093;65267;-65
2020/12/03 01:16:12;;;;;;;28.50;17.30;;;;;;;-5.49;82.09;99673.13;516659;1098;65245;-65
2020/12/03 01:26:17;;;;;;;28.77;17.20;;;;;;;-5.45;81.82;99652.66;516675;1093;65590;-65
2020/12/03 01:36:20;;;;;;;27.80;16.20;;;;;;;-5.44;82.83;99639.01;516879;1098;65245;-66
2020/12/03 01:46:24;;;;;;;28.53;17.33;;;;;;;-5.44;82.68;99606.61;516695;1098;65594;-68
2020/12/03 01:56:47;;;;;;;27.90;17.67;;;;;;;-5.41;82.85;99575.05;517123;1098;65617;-66
2020/12/03 02:07:00;;;;;;;26.13;17.20;;;;;;;-5.40;82.41;99549.44;516732;1098;65165;-67
2020/12/03 02:17:03;;;;;;;33.07;17.07;;;;;;;-5.28;82.87;99546.05;517049;1093;65159;-65
2020/12/03 02:27:09;;;;;;;25.90;14.10;;;;;;;-5.25;82.48;99505.08;517032;1098;65172;-65
2020/12/03 02:37:13;;;;;;;31.40;18.87;;;;;;;-5.23;82.86;99470.08;516735;1098;65201;-66
2020/12/03 02:47:19;;;;;;;27.50;16.37;;;;;;;-5.27;82.52;99464.96;516999;1098;65639;-67
2020/12/03 02:57:24;;;;;;;27.60;17.50;;;;;;;-5.26;83.80;99482.02;515024;1100;65191;-66
2020/12/03 03:07:28;;;;;;;25.70;15.30;;;;;;;-5.29;83.11;99498.27;515536;1100;65278;-65
2020/12/03 03:17:32;;;;;;;22.87;15.13;;;;;;;-5.34;82.49;99510.19;516968;1098;65620;-65
2020/12/03 03:27:37;;;;;;;23.33;14.57;;;;;;;-5.43;82.29;99522.98;517110;1098;65182;-67
2020/12/03 03:37:40;;;;;;;23.20;13.30;;;;;;;-5.46;82.97;99515.31;517032;1098;65163;-67
2020/12/03 03:47:45;;;;;;;24.20;14.63;;;;;;;-5.47;82.32;99506.80;516940;1093;65390;-67
2020/12/03 03:57:49;;;;;;;19.63;13.67;;;;;;;-5.51;82.72;99489.72;516926;1098;65179;-67
2020/12/03 04:07:53;;;;;;;28.90;14.63;;;;;;;-5.45;83.14;99482.06;516738;1098;65435;-66
2020/12/03 04:17:57;;;;;;;26.33;15.43;;;;;;;-5.44;83.27;99467.54;516272;1098;65264;-66
2020/12/03 04:28:00;;;;;;;27.57;14.87;;;;;;;-5.38;83.27;99447.08;516989;1098;65188;-66
2020/12/03 04:38:05;;;;;;;23.20;13.90;;;;;;;-5.41;82.69;99447.92;516788;1098;65242;-65
2020/12/03 04:48:29;;;;;;;28.27;15.43;;;;;;;-5.45;83.45;99448.80;516913;1093;65299;-66
2020/12/03 04:58:46;;;;;;;24.47;15.23;;;;;;;-5.48;83.39;99433.45;516988;1098;65191;-66
2020/12/03 05:08:58;;;;;;;25.90;14.20;;;;;;;-5.49;83.73;99427.47;517132;1098;65264;-65
2020/12/03 05:19:13;;;;;;;18.40;12.67;;;;;;;-5.55;83.41;99416.39;517002;1098;65262;-66
2020/12/03 05:29:17;;;;;;;24.23;13.77;;;;;;;-5.53;84.46;99409.55;517017;1093;65185;-66
2020/12/03 05:39:26;;;;;;;24.13;14.17;;;;;;;-5.52;83.56;99383.98;516993;1098;65771;-67
2020/12/03 05:49:39;;;;;;;24.87;13.50;;;;;;;-5.47;83.35;99380.55;516832;1098;65166;-67
2020/12/03 05:59:43;;;;;;;23.40;14.47;;;;;;;-5.50;83.57;99360.92;516893;1098;65515;-66
2020/12/03 06:10:02;;;;;;;21.73;12.60;;;;;;;-5.46;83.92;99361.77;516863;1098;65166;-66
2020/12/03 06:20:23;;;;;;;26.27;13.67;;;;;;;-5.54;83.20;99366.91;516774;1093;65591;-66
2020/12/03 06:30:30;;;;;;;23.70;14.13;;;;;;;-5.52;83.17;99368.63;516871;1098;65245;-67
2020/12/03 06:40:37;;;;;;;23.95;13.45;;;;;;;-5.51;82.93;99357.53;516881;1093;65574;-66
2020/12/03 06:51:25;;;;;;;23.60;14.00;;;;;;;-5.38;83.24;99354.94;516450;1098;65264;-67
2020/12/03 07:02:06;;;;;;;21.33;12.57;;;;;;;-5.20;82.80;99354.02;517189;1093;65198;-68
2020/12/03 07:12:34;;;;;;;34.67;16.80;;;;;;;-4.93;83.11;99349.64;516603;1093;65610;-65
2020/12/03 07:22:42;;;;;;;20.97;14.00;;;;;;;-4.43;81.82;99337.39;526757;1098;65275;-59
2020/12/03 07:32:54;;;;;;;22.67;13.63;;;;;;;-3.90;80.69;99331.00;520261;1093;65639;-59
2020/12/03 07:43:03;;;;;;;27.13;16.00;;;;;;;-2.85;80.39;99328.99;517102;1098;65284;-60
2020/12/03 07:53:21;;;;;;;26.15;16.85;;;;;;;-1.89;78.64;99324.95;516870;1098;65163;-60
2020/12/03 08:03:50;;;;;;;;;;;;;;;-0.54;75.99;99324.02;516907;1098;65267;-60
2020/12/03 08:13:57;;;;;;;24.50;16.23;;;;;;;0.47;75.73;99318.13;517332;1093;65716;-61
2020/12/03 08:24:01;;;;;;;29.97;18.13;;;;;;;1.01;73.03;99324.38;516680;1098;65182;-60
2020/12/03 08:34:05;;;;;;;25.73;16.63;;;;;;;0.72;72.20;99289.86;516995;1098;65269;-61
2020/12/03 08:44:14;;;;;;;22.23;15.83;;;;;;;1.19;70.12;99291.09;517128;1098;65326;-60
2020/12/03 08:54:26;;;;;;;24.47;16.33;;;;;;;-0.87;71.43;99295.52;517091;1093;65874;-61
2020/12/03 09:04:32;;;;;;;23.87;16.60;;;;;;;-1.95;72.76;99301.91;516681;1098;65617;-58
2020/12/03 09:14:40;;;;;;;25.63;16.80;;;;;;;-2.24;73.68;99268.97;517193;1098;65482;-61
2020/12/03 09:24:48;;;;;;;24.33;16.13;;;;;;;-1.54;73.28;99286.59;516865;1098;65214;-60
2020/12/03 09:34:56;;;;;;;28.30;18.80;;;;;;;-1.71;73.62;99253.44;515895;1093;65163;-61
2020/12/03 09:45:05;;;;;;;26.07;16.97;;;;;;;-1.76;72.65;99238.08;517296;1098;65370;-60
2020/12/03 09:55:16;;;;;;;23.57;14.70;;;;;;;-1.94;73.80;99210.10;516875;1098;65634;-62
2020/12/03 10:05:30;;;;;;;26.83;17.83;;;;;;;-1.88;74.12;99226.27;515696;1094;65189;-60
2020/12/03 10:15:57;;;;;;;26.97;16.97;;;;;;;-2.09;74.05;99244.67;516409;1093;65242;-64
2020/12/03 10:26:17;;;;;;;23.20;15.97;;;;;;;-2.15;75.18;99215.63;515199;1100;65201;-61
2020/12/03 10:36:39;;;;;;;26.50;15.57;;;;;;;-2.16;74.20;99195.92;515620;1100;65163;-69
2020/12/03 10:46:53;;;;;;;24.97;15.43;;;;;;;-2.05;74.50;99197.45;516904;1098;65169;-61
2020/12/03 10:57:06;;;;;;;25.40;16.43;;;;;;;-2.07;74.03;99204.36;516455;1098;65271;-64
2020/12/03 11:07:12;;;;;;;30.55;16.05;;;;;;;-2.08;74.51;99198.34;516528;1098;65239;-64
2020/12/03 11:17:54;;;;;;;23.77;15.25;;;;;;;-2.15;74.43;99184.75;517412;1098;65162;-63
2020/12/03 11:28:34;;;;;;;27.43;15.77;;;;;;;-2.15;74.69;99182.18;516815;1098;65272;-63
2020/12/03 11:38:41;;;;;;;30.80;17.70;;;;;;;-2.12;74.58;99164.11;516891;1098;65188;-63
2020/12/03 11:48:53;;;;;;;33.50;17.93;;;;;;;-2.06;74.78;99144.30;516836;1098;65188;-62
2020/12/03 11:59:14;;;;;;;27.13;16.33;;;;;;;-2.01;74.92;99109.88;516538;1098;65450;-64
2020/12/03 12:09:23;;;;;;;26.77;15.40;;;;;;;-1.93;74.86;99089.13;517023;1098;65323;-65
2020/12/03 12:19:29;;;;;;;29.37;18.47;;;;;;;-1.89;74.61;99079.63;516957;1098;65275;-64
2020/12/03 12:29:33;;;;;;;26.97;16.90;;;;;;;-1.88;74.80;99096.76;516945;1098;65194;-65
2020/12/03 12:39:38;;;;;;;32.25;19.40;;;;;;;-1.79;74.70;99078.55;517061;1098;65198;-66
2020/12/03 12:49:42;;;;;;;31.40;16.33;;;;;;;-1.70;75.23;99068.03;516931;1098;66369;-60
2020/12/03 12:59:47;;;;;;;28.00;17.87;;;;;;;-1.58;75.55;99050.61;515410;1099;65245;-61
2020/12/03 13:09:50;;;;;;;34.10;18.70;;;;;;;-1.55;75.14;99047.98;517664;1093;65269;-63
2020/12/03 13:19:54;;;;;;;35.87;20.93;;;;;;;-1.53;75.77;99029.91;516864;1098;65809;-63
2020/12/03 13:30:00;;;;;;;35.30;22.57;;;;;;;-1.43;75.99;99008.20;516760;1098;65197;-64
2020/12/03 13:40:04;;;;;;;31.57;19.47;;;;;;;-1.41;75.76;98994.41;516951;1098;65475;-63
2020/12/03 13:50:08;;;;;;;36.10;22.97;;;;;;;-1.36;76.32;98963.39;515333;1098;65233;-60
2020/12/03 14:00:12;;;;;;;32.57;21.90;;;;;;;-1.40;75.81;98946.31;516871;1098;65374;-64
2020/12/03 14:10:16;;;;;;;35.53;22.20;;;;;;;-1.31;76.31;98927.22;517070;1098;65255;-58
2020/12/03 14:20:20;;;;;;;37.65;23.15;;;;;;;-1.24;76.56;98884.11;517390;1098;65277;-58
2020/12/03 14:30:33;;;;;;;41.70;24.00;;;;;;;-1.20;75.67;98914.04;516823;1098;65228;-58
2020/12/03 14:40:37;;;;;;;38.93;24.07;;;;;;;-1.20;75.90;98909.75;516740;1098;65568;-56
2020/12/03 14:50:41;;;;;;;43.33;24.87;;;;;;;-1.22;76.52;98875.42;515165;1101;65198;-55
2020/12/03 15:00:45;;;;;;;35.60;23.30;;;;;;;-1.22;76.86;98859.97;517182;1093;65162;-58
2020/12/03 15:10:53;;;;;;;45.70;26.57;;;;;;;-1.17;76.85;98865.00;516969;1098;65149;-61
2020/12/03 15:20:57;;;;;;;41.47;25.47;;;;;;;-1.10;77.58;98848.48;533866;1098;63291;-61
2020/12/03 15:31:01;;;;;;;41.73;25.57;;;;;;;-1.05;77.22;98817.44;519358;1093;65147;-61
2020/12/03 15:41:05;;;;;;;41.50;24.07;;;;;;;-0.96;77.68;98798.28;517068;1098;65192;-62
2020/12/03 15:51:09;;;;;;;41.07;24.23;;;;;;;-0.95;77.79;98829.17;516920;1098;65211;-61
2020/12/03 16:01:12;;;;;;;38.93;24.43;;;;;;;-0.90;76.79;98818.73;517129;1098;65178;-61
2020/12/03 16:11:18;;;;;;;38.67;23.03;;;;;;;-0.85;77.18;98815.12;517118;1098;65268;-61
2020/12/03 16:21:23;;;;;;;39.97;23.07;;;;;;;-0.81;77.76;98823.59;527163;1098;65540;-61
2020/12/03 16:31:30;;;;;;;36.80;21.97;;;;;;;-0.82;77.04;98818.50;508516;1093;10001829;-62
2020/12/03 16:41:34;;;;;;;40.03;25.00;;;;;;;-0.82;77.24;98824.48;516362;1098;65172;-61
2020/12/03 16:51:38;;;;;;;46.27;25.63;;;;;;;-0.82;77.19;98815.92;516703;1098;65179;-60
2020/12/03 17:01:42;;;;;;;42.40;24.67;;;;;;;-0.81;78.02;98791.83;516855;1098;65179;-61
2020/12/03 17:11:48;;;;;;;39.63;24.50;;;;;;;-0.76;77.06;98777.91;516620;1099;65296;-61
2020/12/03 17:21:52;;;;;;;49.63;27.73;;;;;;;-0.74;77.90;98786.44;516461;1098;65217;-61
2020/12/03 17:31:57;;;;;;;42.00;26.17;;;;;;;-0.74;77.96;98763.23;516288;1098;65170;-61
2020/12/03 17:42:02;;;;;;;43.10;26.83;;;;;;;-0.68;77.27;98751.88;516934;1093;65130;-62
2020/12/03 17:52:07;;;;;;;40.60;25.63;;;;;;;-0.62;77.25;98740.53;516939;1093;65239;-61
2020/12/03 18:02:12;;;;;;;42.20;25.33;;;;;;;-0.60;77.09;98733.59;516522;1093;65237;-61
2020/12/03 18:12:18;;;;;;;38.00;24.70;;;;;;;-0.59;77.09;98748.16;516681;1098;65221;-61
2020/12/03 18:22:22;;;;;;;39.30;23.63;;;;;;;-0.56;77.80;98755.83;516744;1093;65511;-62
2020/12/03 18:32:27;;;;;;;39.93;23.83;;;;;;;-0.48;77.70;98747.83;516912;1098;66366;-61
2020/12/03 18:42:32;;;;;;;43.73;25.70;;;;;;;-0.48;76.63;98738.34;516575;1093;65214;-65
2020/12/03 18:52:36;;;;;;;36.90;23.43;;;;;;;-0.46;77.14;98731.42;516425;1098;65195;-65
2020/12/03 19:02:40;;;;;;;40.57;24.20;;;;;;;-0.46;76.95;98695.31;516793;1098;65612;-65
2020/12/03 19:12:44;;;;;;;43.00;26.07;;;;;;;-0.46;76.86;98702.20;516704;1098;65302;-65
2020/12/03 19:22:48;;;;;;;46.67;26.70;;;;;;;-0.48;76.94;98693.67;516682;1093;65573;-64
2020/12/03 19:32:52;;;;;;;42.50;23.90;;;;;;;-0.45;77.52;98691.84;516451;1098;65584;-64
2020/12/03 19:42:56;;;;;;;48.20;27.63;;;;;;;-0.46;76.76;98676.41;516648;1093;65216;-65
2020/12/03 19:53:00;;;;;;;45.70;27.20;;;;;;;-0.47;77.54;98657.48;516513;1098;65223;-65
2020/12/03 20:03:04;;;;;;;39.17;24.50;;;;;;;-0.45;77.01;98655.73;516505;1098;65623;-65
2020/12/03 20:13:09;;;;;;;43.73;23.20;;;;;;;-0.42;77.07;98657.34;517134;1098;65248;-65
2020/12/03 20:23:12;;;;;;;41.30;25.47;;;;;;;-0.40;77.29;98668.47;516748;1093;65591;-64
2020/12/03 20:33:17;;;;;;;42.63;24.07;;;;;;;-0.38;77.62;98650.34;516245;1098;65531;-66
2020/12/03 20:43:21;;;;;;;41.23;24.80;;;;;;;-0.35;77.46;98669.14;516261;1092;65237;-65
2020/12/03 20:53:25;;;;;;;38.67;23.97;;;;;;;-0.35;77.10;98656.25;516536;1098;65171;-65
2020/12/03 21:03:29;;;;;;;47.43;26.57;;;;;;;-0.33;77.20;98628.66;516549;1098;65223;-65
2020/12/03 21:13:33;;;;;;;32.83;22.17;;;;;;;-0.29;77.64;98640.56;516544;1098;65611;-65
2020/12/03 21:23:37;;;;;;;39.00;24.43;;;;;;;-0.29;77.54;98645.73;516469;1092;65228;-64
2020/12/03 21:33:43;;;;;;;38.30;23.80;;;;;;;-0.23;77.58;98621.45;516759;1098;65140;-65
2020/12/03 21:43:48;;;;;;;40.73;24.20;;;;;;;-0.20;77.37;98598.11;516830;1098;65650;-61
2020/12/03 21:53:52;;;;;;;41.83;24.43;;;;;;;-0.22;77.89;98601.64;516642;1098;65592;-67
2020/12/03 22:03:56;;;;;;;47.60;23.93;;;;;;;-0.24;77.14;98580.21;516521;1093;65175;-63
2020/12/03 22:14:00;;;;;;;31.70;20.20;;;;;;;-0.22;77.44;98592.17;516452;1098;65150;-61
2020/12/03 22:24:04;;;;;;;41.55;22.45;;;;;;;-0.21;77.83;98573.20;516869;1098;65573;-66
2020/12/03 22:34:08;;;;;;;33.60;20.07;;;;;;;-0.23;78.11;98551.78;516097;1098;65287;-65
2020/12/03 22:44:12;;;;;;;39.03;22.33;;;;;;;-0.22;77.75;98532.83;516548;1093;65283;-69
2020/12/03 22:54:16;;;;;;;34.87;22.03;;;;;;;-0.21;77.55;98533.65;516496;1098;65230;-59
2020/12/03 23:04:20;;;;;;;29.63;19.87;;;;;;;-0.21;78.46;98524.19;517043;1093;65150;-62
2020/12/03 23:14:24;;;;;;;31.50;17.75;;;;;;;-0.15;77.88;98533.44;516960;1093;65226;-68
2020/12/03 23:24:28;;;;;;;36.20;20.33;;;;;;;-0.13;78.47;98525.62;517165;1098;65169;-71
2020/12/03 23:34:32;;;;;;;27.20;18.75;;;;;;;-0.18;78.84;98493.09;517446;1098;65229;-72
2020/12/03 23:44:36;;;;;;;31.85;20.40;;;;;;;-0.20;78.49;98484.58;516988;1093;65149;-67
2020/12/03 23:54:40;;;;;;;32.67;17.40;;;;;;;-0.23;78.09;98494.17;517151;1098;65656;-68
